Time;durP1;ratioP1;P1;durP2;ratioP2;P2;SDS_P1;SDS_P2;PMS_P1;PMS_P2;Temp;Humidity;BMP_temperature;BMP_pressure;BME280_temperature;BME280_humidity;BME280_pressure;Samples;Min_cycle;Max_cycle;Signal;HPM_P1;HPM_P2
2023/04/12 03:02:31;;;;;;;0.30;0.30;;;18.00;50.90;;;;;;5051417;22;45646;-83
2023/04/12 03:04:57;;;;;;;0.93;0.60;;;18.00;51.00;;;;;;4956171;28;47034;-82
2023/04/12 03:07:23;;;;;;;0.40;0.40;;;18.00;50.90;;;;;;4949759;28;45240;-83
2023/04/12 03:09:48;;;;;;;0.68;0.50;;;18.00;50.90;;;;;;4986589;28;45340;-85
2023/04/12 03:12:15;;;;;;;0.88;0.40;;;18.00;51.00;;;;;;4981788;28;45545;-83
2023/04/12 03:14:40;;;;;;;0.60;0.35;;;18.00;50.90;;;;;;4971211;28;45690;-84
2023/04/12 03:17:06;;;;;;;1.30;0.30;;;17.90;50.90;;;;;;4937184;28;45072;-83
2023/04/12 03:19:34;;;;;;;0.47;0.32;;;18.00;51.00;;;;;;4949352;28;45401;-85
2023/04/12 03:22:00;;;;;;;0.82;0.35;;;18.00;51.00;;;;;;4940943;28;44871;-82
2023/04/12 03:24:26;;;;;;;0.50;0.40;;;18.00;51.00;;;;;;4944736;28;46793;-86
2023/04/12 03:26:52;;;;;;;0.65;0.40;;;17.90;50.90;;;;;;4959269;23;45582;-60
2023/04/12 03:29:17;;;;;;;0.38;0.30;;;17.90;51.00;;;;;;4965513;28;45600;-59
2023/04/12 03:31:43;;;;;;;0.40;0.40;;;17.90;50.90;;;;;;4976334;28;45774;-59
2023/04/12 03:34:09;;;;;;;0.40;0.38;;;17.90;51.00;;;;;;4947402;28;45218;-60
2023/04/12 03:36:34;;;;;;;0.55;0.45;;;17.90;50.90;;;;;;4969269;28;45421;-60
2023/04/12 03:39:00;;;;;;;0.85;0.50;;;17.90;50.90;;;;;;4969705;28;45637;-58
2023/04/12 03:41:27;;;;;;;0.43;0.32;;;17.90;51.00;;;;;;4983120;28;45375;-58
2023/04/12 03:43:53;;;;;;;0.82;0.40;;;17.90;51.00;;;;;;4967963;28;46477;-60
2023/04/12 03:46:18;;;;;;;0.50;0.35;;;17.90;51.00;;;;;;4980840;28;45403;-59
2023/04/12 03:48:44;;;;;;;0.25;0.20;;;17.90;51.00;;;;;;4951513;28;45352;-59
2023/04/12 03:51:11;;;;;;;1.02;0.30;;;17.90;51.00;;;;;;4963356;28;44956;-59
2023/04/12 03:53:40;;;;;;;0.32;0.30;;;17.90;51.00;;;;;;4955294;28;46786;-59
2023/04/12 03:56:06;;;;;;;0.60;0.40;;;17.90;51.00;;;;;;4961637;28;45345;-59
2023/04/12 03:58:32;;;;;;;0.40;0.32;;;17.90;51.00;;;;;;4969467;28;45062;-60
2023/04/12 04:01:04;;;;;;;0.60;0.30;;;17.90;51.00;;;;;;4960711;28;45873;-58
2023/04/12 04:03:33;;;;;;;0.55;0.38;;;17.90;51.00;;;;;;4968049;28;45973;-59
2023/04/12 04:06:02;;;;;;;0.60;0.47;;;17.90;51.00;;;;;;4960779;28;45387;-60
2023/04/12 04:08:28;;;;;;;0.30;0.30;;;17.80;51.00;;;;;;4977135;28;44975;-58
2023/04/12 04:10:55;;;;;;;0.52;0.40;;;17.90;51.00;;;;;;4943631;28;45659;-60
2023/04/12 04:13:21;;;;;;;0.30;0.30;;;17.80;51.00;;;;;;4987963;28;46044;-60
2023/04/12 04:15:50;;;;;;;0.47;0.32;;;17.80;51.00;;;;;;4977024;28;44855;-60
2023/04/12 04:18:16;;;;;;;0.47;0.40;;;17.80;51.00;;;;;;4965709;28;45722;-60
2023/04/12 04:20:41;;;;;;;0.20;0.20;;;17.80;51.00;;;;;;4914963;28;45350;-59
2023/04/12 04:23:09;;;;;;;0.77;0.40;;;17.80;51.00;;;;;;4972276;28;45411;-59
2023/04/12 04:25:38;;;;;;;0.50;0.38;;;17.80;51.00;;;;;;4962576;28;45141;-59
2023/04/12 04:28:06;;;;;;;0.77;0.43;;;17.80;51.00;;;;;;4968048;28;45543;-59
2023/04/12 04:30:33;;;;;;;0.38;0.38;;;17.80;51.00;;;;;;4942474;28;45501;-59
2023/04/12 04:32:58;;;;;;;0.70;0.47;;;17.80;51.00;;;;;;4966901;28;45281;-60
2023/04/12 04:35:24;;;;;;;0.40;0.40;;;17.80;51.00;;;;;;4974004;28;45533;-58
2023/04/12 04:37:51;;;;;;;0.40;0.32;;;17.80;51.10;;;;;;4969692;28;45290;-60
2023/04/12 04:40:20;;;;;;;0.40;0.30;;;17.80;51.00;;;;;;4979766;28;45774;-59
2023/04/12 04:42:53;;;;;;;0.40;0.40;;;17.80;51.10;;;;;;4959051;28;45855;-59
2023/04/12 04:45:25;;;;;;;0.60;0.40;;;17.80;51.10;;;;;;4954854;28;45265;-60
2023/04/12 04:47:54;;;;;;;0.20;0.20;;;17.70;51.00;;;;;;4964095;28;45331;-60
2023/04/12 04:50:21;;;;;;;0.43;0.30;;;17.70;51.00;;;;;;4974413;28;45673;-59
2023/04/12 04:52:47;;;;;;;0.32;0.32;;;17.70;51.00;;;;;;4979119;28;45527;-59
2023/04/12 04:55:13;;;;;;;0.52;0.38;;;17.80;51.10;;;;;;4980325;28;45328;-59
2023/04/12 04:57:40;;;;;;;0.30;0.30;;;17.70;51.00;;;;;;4945015;28;45324;-59
2023/04/12 05:00:10;;;;;;;1.15;0.40;;;17.70;51.00;;;;;;4957534;28;44895;-57
2023/04/12 05:02:38;;;;;;;0.20;0.20;;;17.70;51.10;;;;;;4958452;28;45508;-59
2023/04/12 05:05:05;;;;;;;0.30;0.30;;;17.70;51.10;;;;;;4955857;28;46058;-59
2023/04/12 05:07:31;;;;;;;0.40;0.20;;;17.70;51.10;;;;;;4941533;28;45095;-59
2023/04/12 05:09:56;;;;;;;0.40;0.40;;;17.70;51.10;;;;;;4989032;28;45291;-59
2023/04/12 05:12:22;;;;;;;0.32;0.32;;;17.70;51.10;;;;;;4988854;28;45262;-60
2023/04/12 05:14:47;;;;;;;0.43;0.32;;;17.70;51.00;;;;;;4988763;28;45183;-59
2023/04/12 05:17:13;;;;;;;0.40;0.40;;;17.70;51.10;;;;;;4942540;28;46173;-59
2023/04/12 05:19:40;;;;;;;0.35;0.35;;;17.70;51.10;;;;;;4989810;28;44879;-60
2023/04/12 05:22:05;;;;;;;0.60;0.40;;;17.70;51.10;;;;;;4935068;28;48405;-59
2023/04/12 05:24:31;;;;;;;0.35;0.35;;;17.70;51.10;;;;;;4961442;28;45390;-59
2023/04/12 05:26:57;;;;;;;0.70;0.50;;;17.70;51.10;;;;;;4964406;28;45560;-59
2023/04/12 05:29:23;;;;;;;0.60;0.55;;;17.70;51.10;;;;;;4973181;28;45725;-60
2023/04/12 05:31:48;;;;;;;0.40;0.30;;;17.70;51.10;;;;;;4957413;28;46180;-59
2023/04/12 05:34:14;;;;;;;0.90;0.38;;;17.70;51.10;;;;;;4990133;28;45316;-58
2023/04/12 05:36:39;;;;;;;0.32;0.30;;;17.70;51.10;;;;;;4968539;28;45661;-59
2023/04/12 05:39:05;;;;;;;0.30;0.30;;;17.70;51.10;;;;;;4966944;28;45133;-59
2023/04/12 05:41:31;;;;;;;0.60;0.40;;;17.70;51.10;;;;;;4980360;28;45584;-59
2023/04/12 05:43:56;;;;;;;0.38;0.32;;;17.60;51.10;;;;;;4983303;28;45093;-58
2023/04/12 05:46:22;;;;;;;0.47;0.30;;;17.70;51.10;;;;;;4982309;28;45096;-59
2023/04/12 05:48:47;;;;;;;0.30;0.30;;;17.70;51.10;;;;;;4985820;28;45384;-59
2023/04/12 05:51:13;;;;;;;0.68;0.40;;;17.60;51.10;;;;;;4964455;28;46854;-59
2023/04/12 05:53:39;;;;;;;0.82;0.30;;;17.60;51.20;;;;;;4972640;28;45210;-62
2023/04/12 05:56:05;;;;;;;3.30;0.93;;;17.60;50.90;;;;;;4982141;28;45414;-61
2023/04/12 05:58:30;;;;;;;2.65;1.23;;;17.60;49.90;;;;;;4969082;28;45047;-60
2023/04/12 06:00:56;;;;;;;4.28;1.77;;;17.50;49.40;;;;;;4977315;28;45497;-58
2023/04/12 06:03:25;;;;;;;4.35;1.50;;;17.40;49.00;;;;;;4971413;28;45522;-60
2023/04/12 06:05:51;;;;;;;3.42;1.52;;;17.20;48.90;;;;;;4983013;28;45651;-60
2023/04/12 06:08:17;;;;;;;7.13;1.80;;;17.10;49.00;;;;;;4966612;28;45497;-61
2023/04/12 06:10:43;;;;;;;3.55;1.70;;;17.10;49.10;;;;;;4946452;28;45546;-59
2023/04/12 06:13:08;;;;;;;6.68;2.30;;;17.00;49.20;;;;;;4969136;28;44931;-60
2023/04/12 06:15:35;;;;;;;4.97;1.80;;;16.90;49.40;;;;;;4962750;28;45418;-60
2023/04/12 06:18:00;;;;;;;2.22;1.50;;;16.90;49.50;;;;;;4967595;28;45433;-59
2023/04/12 06:20:26;;;;;;;2.25;1.40;;;17.10;49.70;;;;;;4960208;28;45509;-60
2023/04/12 06:22:52;;;;;;;2.92;1.63;;;17.30;49.40;;;;;;4970291;28;45456;-58
2023/04/12 06:25:17;;;;;;;3.42;1.63;;;17.60;49.10;;;;;;4966990;28;46187;-57
2023/04/12 06:27:43;;;;;;;4.60;1.52;;;17.70;48.80;;;;;;4975243;28;45511;-58
2023/04/12 06:30:09;;;;;;;3.88;1.73;;;18.00;48.50;;;;;;4984761;28;45608;-59
2023/04/12 06:32:37;;;;;;;3.42;1.58;;;18.20;48.30;;;;;;4963431;28;44958;-58
2023/04/12 06:35:04;;;;;;;3.22;1.17;;;18.40;48.10;;;;;;4987411;28;44674;-57
2023/04/12 06:37:29;;;;;;;3.33;1.40;;;18.60;47.90;;;;;;4969231;28;45271;-58
2023/04/12 06:39:55;;;;;;;3.33;1.48;;;18.70;47.70;;;;;;4984349;28;45391;-59
2023/04/12 06:42:20;;;;;;;2.15;1.08;;;18.90;47.70;;;;;;4962544;28;45325;-59
2023/04/12 06:44:46;;;;;;;2.75;1.25;;;19.00;47.50;;;;;;4974677;28;45045;-59
2023/04/12 06:47:11;;;;;;;4.10;1.20;;;19.20;47.40;;;;;;4965428;28;45642;-59
2023/04/12 06:49:37;;;;;;;2.17;1.10;;;19.30;47.30;;;;;;4986307;28;45480;-59
2023/04/12 06:52:03;;;;;;;2.20;1.00;;;19.40;47.20;;;;;;4962465;28;45529;-59
2023/04/12 06:54:28;;;;;;;2.30;1.13;;;19.60;47.20;;;;;;4969212;28;45570;-58
2023/04/12 06:56:56;;;;;;;5.72;1.10;;;19.70;47.20;;;;;;4965532;28;45544;-60
2023/04/12 06:59:21;;;;;;;2.60;1.10;;;19.80;47.00;;;;;;4970163;28;45925;-61
2023/04/12 07:01:47;;;;;;;2.15;0.90;;;19.90;47.00;;;;;;4973641;28;45819;-61
2023/04/12 07:04:13;;;;;;;1.63;1.00;;;20.00;47.00;;;;;;4967974;28;45056;-61
2023/04/12 07:06:38;;;;;;;5.65;1.30;;;20.10;46.90;;;;;;4962039;28;44954;-58
2023/04/12 07:09:04;;;;;;;3.72;1.23;;;20.10;46.80;;;;;;4959513;28;46774;-58
2023/04/12 07:11:30;;;;;;;2.83;1.05;;;20.30;46.90;;;;;;4978823;28;45455;-58
2023/04/12 07:13:57;;;;;;;2.03;1.02;;;20.30;46.80;;;;;;4984174;28;45508;-58
2023/04/12 07:16:24;;;;;;;1.88;1.17;;;20.40;46.80;;;;;;4979968;28;44996;-61
2023/04/12 07:18:49;;;;;;;3.92;0.82;;;20.50;46.80;;;;;;4960614;28;45808;-58
2023/04/12 07:21:16;;;;;;;3.13;1.10;;;20.50;46.80;;;;;;4984625;28;45638;-60
2023/04/12 07:23:42;;;;;;;2.75;1.00;;;20.60;46.70;;;;;;4975272;28;45040;-60
2023/04/12 07:26:08;;;;;;;2.15;0.90;;;20.70;46.60;;;;;;4968204;28;45366;-58
2023/04/12 07:28:35;;;;;;;3.65;1.10;;;20.80;46.70;;;;;;4973123;28;46100;-60
2023/04/12 07:31:03;;;;;;;1.92;1.05;;;20.90;46.60;;;;;;4960317;28;45212;-60
2023/04/12 07:33:30;;;;;;;0.75;0.68;;;20.90;46.50;;;;;;4970616;28;45230;-58
2023/04/12 07:35:55;;;;;;;4.78;0.90;;;21.00;46.50;;;;;;4963859;28;44994;-59
2023/04/12 07:38:21;;;;;;;3.03;1.02;;;21.10;46.40;;;;;;4989780;28;45507;-58
2023/04/12 07:40:46;;;;;;;2.40;0.90;;;21.20;46.40;;;;;;4963852;28;45208;-59
2023/04/12 07:43:12;;;;;;;1.52;0.98;;;21.20;46.30;;;;;;4967613;28;44994;-58
2023/04/12 07:45:38;;;;;;;1.58;0.90;;;21.30;46.30;;;;;;4982001;28;45523;-56
2023/04/12 07:48:04;;;;;;;3.58;0.90;;;21.30;46.20;;;;;;4988223;28;46266;-58
2023/04/12 07:50:30;;;;;;;2.20;0.90;;;21.40;46.20;;;;;;4983248;28;45488;-58
2023/04/12 07:53:20;;;;;;;1.85;0.73;;;21.50;46.20;;;;;;4970782;28;45619;-60
2023/04/12 07:55:46;;;;;;;4.32;0.77;;;21.60;45.70;;;;;;4983504;28;45832;-59
2023/04/12 07:58:12;;;;;;;2.25;0.85;;;21.70;46.00;;;;;;4969076;28;46007;-61
2023/04/12 08:00:37;;;;;;;5.13;0.90;;;21.70;45.90;;;;;;4952384;28;45338;-60
2023/04/12 08:03:03;;;;;;;4.00;0.93;;;21.80;45.90;;;;;;4970605;28;45587;-60
2023/04/12 08:05:28;;;;;;;1.60;0.70;;;21.90;45.90;;;;;;4982850;28;45264;-60
2023/04/12 08:07:55;;;;;;;3.10;1.00;;;21.90;45.80;;;;;;4990970;28;45736;-61
2023/04/12 08:10:20;;;;;;;1.60;0.65;;;21.90;45.80;;;;;;4965301;28;45378;-61
2023/04/12 08:12:46;;;;;;;5.13;0.65;;;21.90;45.80;;;;;;4973154;28;45196;-62
2023/04/12 08:15:12;;;;;;;4.40;0.90;;;21.90;45.80;;;;;;4963597;28;46823;-61
2023/04/12 08:17:37;;;;;;;1.75;0.88;;;21.90;45.90;;;;;;4962561;28;47171;-59
2023/04/12 08:20:04;;;;;;;1.65;0.80;;;21.80;45.80;;;;;;4988668;28;45248;-60
2023/04/12 08:22:30;;;;;;;2.13;0.82;;;21.80;45.80;;;;;;4967181;28;45276;-60
2023/04/12 08:24:55;;;;;;;1.40;0.80;;;21.70;45.90;;;;;;4971409;28;45546;-59
2023/04/12 08:27:21;;;;;;;1.60;0.73;;;21.70;46.10;;;;;;4981146;28;47157;-59
2023/04/12 08:29:46;;;;;;;2.35;0.88;;;21.60;46.20;;;;;;4970465;28;45527;-60
2023/04/12 08:32:12;;;;;;;2.30;0.90;;;21.60;46.30;;;;;;4960628;28;45204;-61
2023/04/12 08:34:38;;;;;;;3.78;1.00;;;21.60;46.40;;;;;;4969735;28;44843;-61
2023/04/12 08:37:03;;;;;;;3.53;1.00;;;21.60;46.40;;;;;;4964153;28;46173;-60
2023/04/12 08:39:31;;;;;;;2.30;0.90;;;21.50;46.40;;;;;;4988319;28;45885;-60
2023/04/12 08:41:56;;;;;;;2.33;0.80;;;21.50;46.50;;;;;;4963342;28;46315;-61
2023/04/12 08:44:35;;;;;;;1.52;0.95;;;21.50;46.60;;;;;;4953390;28;45451;-61
2023/04/12 08:47:01;;;;;;;3.28;0.93;;;21.50;46.50;;;;;;4959953;28;46071;-61
2023/04/12 08:49:27;;;;;;;1.60;0.70;;;21.40;46.60;;;;;;4956634;28;46394;-59
2023/04/12 08:51:53;;;;;;;1.60;0.70;;;21.40;46.70;;;;;;4964320;28;45650;-59
2023/04/12 08:54:19;;;;;;;3.38;0.93;;;21.30;46.70;;;;;;4969167;28;45334;-60
2023/04/12 08:56:45;;;;;;;1.88;0.75;;;21.40;46.80;;;;;;4983021;28;46063;-61
2023/04/12 08:59:11;;;;;;;4.78;1.05;;;21.30;46.80;;;;;;4952808;28;45389;-62
2023/04/12 09:01:36;;;;;;;1.30;0.55;;;21.30;46.90;;;;;;4958550;28;45225;-62
2023/04/12 09:04:05;;;;;;;3.05;0.70;;;21.30;46.90;;;;;;4969816;28;45461;-60
2023/04/12 09:06:31;;;;;;;3.83;0.80;;;21.20;46.90;;;;;;4961796;28;45474;-60
2023/04/12 09:08:57;;;;;;;3.10;0.80;;;21.20;47.00;;;;;;4952176;28;45174;-60
2023/04/12 09:11:23;;;;;;;1.90;0.88;;;21.20;47.00;;;;;;4959155;28;45735;-59
2023/04/12 09:13:49;;;;;;;1.98;0.95;;;21.10;47.00;;;;;;4968305;28;45600;-60
2023/04/12 09:16:14;;;;;;;1.30;0.60;;;21.10;47.10;;;;;;4976656;28;45522;-59
2023/04/12 09:18:47;;;;;;;1.48;0.70;;;21.10;47.10;;;;;;4965999;28;44631;-60
2023/04/12 09:21:13;;;;;;;1.15;0.70;;;21.10;47.10;;;;;;4947142;28;45241;-60
2023/04/12 09:23:38;;;;;;;1.52;0.75;;;21.10;47.20;;;;;;4987483;28;45478;-60
2023/04/12 09:26:05;;;;;;;1.65;0.90;;;21.00;47.20;;;;;;4958009;28;45318;-60
2023/04/12 09:28:31;;;;;;;2.25;0.98;;;21.00;47.30;;;;;;4966993;28;45443;-60
2023/04/12 09:30:57;;;;;;;1.20;0.68;;;21.00;47.30;;;;;;4961286;28;45718;-61
2023/04/12 09:33:33;;;;;;;1.83;0.60;;;21.00;47.30;;;;;;4953298;28;45566;-61
2023/04/12 09:36:00;;;;;;;1.15;0.60;;;20.90;47.30;;;;;;4948541;28;45741;-62
2023/04/12 09:38:25;;;;;;;2.65;0.70;;;20.90;47.40;;;;;;4967251;28;45651;-61
2023/04/12 09:40:51;;;;;;;5.65;0.90;;;20.90;47.40;;;;;;4981811;28;45594;-61
2023/04/12 09:43:17;;;;;;;2.15;0.70;;;20.90;47.50;;;;;;4971960;28;45305;-62
2023/04/12 09:45:42;;;;;;;3.88;0.70;;;20.80;47.50;;;;;;4979504;28;45482;-61
2023/04/12 09:48:08;;;;;;;1.33;0.70;;;20.80;47.50;;;;;;4983113;28;45955;-60
2023/04/12 09:50:33;;;;;;;2.35;0.80;;;20.80;47.60;;;;;;4962629;28;45161;-60
2023/04/12 09:53:01;;;;;;;3.58;0.80;;;20.80;47.60;;;;;;4986122;28;45139;-60
2023/04/12 09:55:27;;;;;;;1.23;0.60;;;20.80;47.60;;;;;;4951643;28;45791;-60
2023/04/12 09:57:54;;;;;;;2.65;0.73;;;20.70;47.70;;;;;;4970315;28;45345;-60
2023/04/12 10:00:22;;;;;;;3.05;0.80;;;20.70;47.80;;;;;;4962852;28;45417;-60
2023/04/12 10:02:50;;;;;;;2.42;0.68;;;20.60;47.80;;;;;;4964558;28;45265;-60
2023/04/12 10:05:17;;;;;;;1.52;0.77;;;20.60;47.80;;;;;;4967460;28;46520;-60
2023/04/12 10:07:43;;;;;;;2.42;0.70;;;20.60;47.80;;;;;;4953967;28;45483;-60
2023/04/12 10:10:12;;;;;;;1.95;0.93;;;20.60;47.90;;;;;;4954571;28;45246;-60
2023/04/12 10:12:39;;;;;;;1.75;0.70;;;20.60;47.90;;;;;;4973868;28;45168;-60
2023/04/12 10:15:11;;;;;;;1.17;0.52;;;20.60;48.00;;;;;;4965082;28;48247;-61
2023/04/12 10:17:44;;;;;;;1.42;0.80;;;20.50;47.90;;;;;;4957426;28;44763;-60
2023/04/12 10:20:10;;;;;;;3.38;0.63;;;20.50;48.00;;;;;;4958050;28;45406;-60
2023/04/12 10:22:38;;;;;;;2.13;0.93;;;20.50;48.10;;;;;;4968964;28;44864;-60
2023/04/12 10:25:04;;;;;;;3.40;0.98;;;20.50;48.10;;;;;;4972438;28;45509;-60
2023/04/12 10:27:30;;;;;;;1.77;0.63;;;20.40;48.10;;;;;;4955877;28;45810;-59
2023/04/12 10:30:21;;;;;;;1.60;0.73;;;20.40;48.20;;;;;;4955156;28;45348;-60
2023/04/12 10:33:15;;;;;;;4.45;0.68;;;20.40;48.20;;;;;;4966836;28;45910;-60
2023/04/12 10:36:01;;;;;;;1.45;0.70;;;20.40;48.30;;;;;;4970416;28;46489;-60
2023/04/12 10:38:31;;;;;;;1.65;0.70;;;20.30;48.30;;;;;;4953461;28;44891;-59
2023/04/12 10:41:13;;;;;;;1.00;0.57;;;20.30;48.30;;;;;;4979261;28;45247;-60
2023/04/12 10:43:43;;;;;;;1.57;0.60;;;20.30;48.40;;;;;;4961510;28;45158;-59
2023/04/12 10:46:37;;;;;;;1.13;0.40;;;20.30;48.40;;;;;;4962551;28;48216;-60
2023/04/12 10:49:13;;;;;;;0.98;0.60;;;20.20;48.40;;;;;;4986409;28;45254;-60
2023/04/12 10:51:39;;;;;;;1.13;0.60;;;20.20;48.40;;;;;;4949861;28;45709;-60
2023/04/12 10:54:07;;;;;;;1.52;1.05;;;20.20;48.40;;;;;;4964244;28;45492;-60
2023/04/12 10:56:37;;;;;;;0.60;0.50;;;20.20;48.40;;;;;;4961198;28;46887;-60
2023/04/12 10:59:04;;;;;;;1.58;0.60;;;20.10;48.40;;;;;;4954133;28;45196;-60
2023/04/12 11:01:30;;;;;;;1.00;0.60;;;20.10;48.50;;;;;;4942078;28;44808;-60
2023/04/12 11:04:15;;;;;;;1.02;0.45;;;20.10;48.50;;;;;;4966558;28;46296;-61
2023/04/12 11:06:57;;;;;;;2.33;0.80;;;20.10;48.50;;;;;;4971361;28;45441;-61
2023/04/12 11:09:32;;;;;;;1.17;0.80;;;20.10;48.60;;;;;;4970291;28;45310;-62
2023/04/12 11:12:07;;;;;;;1.13;0.70;;;20.10;48.50;;;;;;4985777;28;45484;-61
2023/04/12 11:14:44;;;;;;;3.05;0.98;;;20.20;48.30;;;;;;4973486;28;45402;-60
2023/04/12 11:17:13;;;;;;;1.88;0.70;;;20.40;48.00;;;;;;4947329;28;46232;-60
2023/04/12 11:19:50;;;;;;;0.68;0.50;;;20.50;47.90;;;;;;4987731;28;45197;-62
2023/04/12 11:22:16;;;;;;;3.28;0.95;;;20.70;47.70;;;;;;4964104;28;45331;-61
2023/04/12 11:24:43;;;;;;;3.50;0.70;;;20.80;47.60;;;;;;4958067;28;44827;-62
2023/04/12 11:27:09;;;;;;;0.65;0.50;;;20.90;47.50;;;;;;4965870;28;46977;-63
2023/04/12 11:29:35;;;;;;;3.53;0.82;;;21.00;47.40;;;;;;4976533;28;45342;-62
2023/04/12 11:32:04;;;;;;;1.50;0.80;;;21.10;47.30;;;;;;4961228;28;45474;-61
2023/04/12 11:34:33;;;;;;;1.52;0.70;;;21.20;47.30;;;;;;4954129;28;45496;-61
2023/04/12 11:36:59;;;;;;;1.10;0.60;;;21.20;47.10;;;;;;4961457;28;44965;-60
2023/04/12 11:39:26;;;;;;;1.23;0.50;;;21.30;47.20;;;;;;4984205;28;45631;-62
2023/04/12 11:41:51;;;;;;;2.40;0.82;;;21.30;47.10;;;;;;4986336;28;45176;-60
2023/04/12 11:44:18;;;;;;;1.20;0.40;;;21.40;47.10;;;;;;4959591;28;45188;-60
2023/04/12 11:46:44;;;;;;;1.58;0.50;;;21.50;47.10;;;;;;4965762;28;47102;-60
2023/04/12 11:49:09;;;;;;;1.90;0.55;;;21.50;47.00;;;;;;4969576;28;45216;-59
2023/04/12 11:51:35;;;;;;;1.23;0.60;;;21.60;47.00;;;;;;4959326;28;45040;-61
2023/04/12 11:54:01;;;;;;;1.13;0.57;;;21.60;46.90;;;;;;4972567;28;45502;-59
2023/04/12 11:56:28;;;;;;;1.30;0.40;;;21.70;46.90;;;;;;4932372;28;46921;-62
2023/04/12 11:58:53;;;;;;;1.17;0.50;;;21.70;46.90;;;;;;4958059;28;44683;-60
2023/04/12 12:01:19;;;;;;;1.52;0.40;;;21.70;46.80;;;;;;4962249;28;45367;-61
2023/04/12 12:03:45;;;;;;;1.55;0.52;;;21.80;46.80;;;;;;4955309;28;46885;-62
2023/04/12 12:06:11;;;;;;;1.20;0.47;;;21.80;46.80;;;;;;4953560;28;45912;-62
2023/04/12 12:08:37;;;;;;;1.17;0.57;;;21.90;46.80;;;;;;4958944;28;45038;-63
2023/04/12 12:11:02;;;;;;;1.13;0.50;;;21.90;46.80;;;;;;4969682;28;45011;-62
2023/04/12 12:13:46;;;;;;;1.85;0.52;;;22.00;46.80;;;;;;4962937;28;45194;-62
2023/04/12 12:16:11;;;;;;;0.90;0.57;;;22.10;46.60;;;;;;4954053;28;46532;-61
2023/04/12 12:18:41;;;;;;;1.30;0.55;;;22.10;46.70;;;;;;4959596;28;44711;-59
2023/04/12 12:21:10;;;;;;;0.52;0.40;;;22.20;47.20;;;;;;4968210;28;45361;-60
2023/04/12 12:23:36;;;;;;;0.95;0.57;;;22.30;46.70;;;;;;4980569;28;45374;-61
2023/04/12 12:26:02;;;;;;;0.40;0.40;;;22.30;46.60;;;;;;4991295;28;46683;-61
2023/04/12 12:28:28;;;;;;;0.85;0.50;;;22.40;46.60;;;;;;4981257;28;45597;-60
2023/04/12 12:30:56;;;;;;;2.03;0.47;;;22.40;46.50;;;;;;4982526;28;45166;-60
2023/04/12 12:33:22;;;;;;;1.13;0.40;;;22.40;46.50;;;;;;4957830;28;45184;-61
2023/04/12 12:35:57;;;;;;;0.57;0.40;;;22.50;46.50;;;;;;4953735;28;45479;-59
2023/04/12 12:38:22;;;;;;;1.25;0.38;;;22.60;46.30;;;;;;4978551;28;44749;-61
2023/04/12 12:40:48;;;;;;;0.47;0.45;;;22.60;46.30;;;;;;4961535;28;45162;-61
2023/04/12 12:43:20;;;;;;;0.47;0.30;;;22.60;46.30;;;;;;4974650;28;45318;-61
2023/04/12 12:45:45;;;;;;;1.13;0.50;;;22.70;46.30;;;;;;4943753;28;46413;-61
2023/04/12 12:48:11;;;;;;;1.02;0.55;;;22.70;46.30;;;;;;4971847;28;45250;-60
2023/04/12 12:50:38;;;;;;;0.70;0.50;;;22.70;46.20;;;;;;4970217;28;45304;-60
2023/04/12 12:53:05;;;;;;;0.68;0.50;;;22.80;46.40;;;;;;4973757;28;45536;-59
2023/04/12 12:55:30;;;;;;;1.55;0.50;;;22.80;46.10;;;;;;4985991;28;45256;-61
2023/04/12 12:57:56;;;;;;;1.13;0.40;;;22.90;46.20;;;;;;4977331;28;45626;-60
2023/04/12 13:00:25;;;;;;;2.15;0.47;;;22.90;46.20;;;;;;4966237;28;45175;-59
2023/04/12 13:02:51;;;;;;;1.55;0.47;;;23.00;46.10;;;;;;4970285;28;45582;-60
2023/04/12 13:05:17;;;;;;;0.47;0.38;;;23.00;46.10;;;;;;4948854;28;47754;-61
2023/04/12 13:07:42;;;;;;;0.60;0.22;;;23.00;46.10;;;;;;4992098;28;45595;-59
2023/04/12 13:10:08;;;;;;;3.00;0.40;;;23.00;46.10;;;;;;4990093;28;45244;-60
2023/04/12 13:12:35;;;;;;;0.93;0.60;;;23.10;46.10;;;;;;4956607;28;44773;-61
2023/04/12 13:15:00;;;;;;;2.22;0.35;;;23.10;46.00;;;;;;4978931;28;45455;-59
2023/04/12 13:17:27;;;;;;;0.57;0.38;;;23.10;46.00;;;;;;4956028;28;45319;-60
2023/04/12 13:19:52;;;;;;;0.73;0.60;;;23.20;46.00;;;;;;4981709;28;45236;-62
2023/04/12 13:22:18;;;;;;;1.02;0.50;;;23.20;46.00;;;;;;4941317;28;45584;-60
2023/04/12 13:24:44;;;;;;;0.93;0.40;;;23.20;46.00;;;;;;4990878;28;45230;-60
2023/04/12 13:27:10;;;;;;;2.55;0.40;;;23.20;46.00;;;;;;4970850;28;45406;-59
2023/04/12 13:29:35;;;;;;;0.68;0.52;;;23.30;46.00;;;;;;4975128;28;45306;-61
2023/04/12 13:32:02;;;;;;;2.28;0.30;;;23.30;45.90;;;;;;4979245;28;45118;-62
2023/04/12 13:34:27;;;;;;;0.52;0.40;;;23.30;45.90;;;;;;4995868;28;45755;-62
2023/04/12 13:36:53;;;;;;;0.50;0.30;;;23.40;46.50;;;;;;4969879;28;45225;-63
2023/04/12 13:39:18;;;;;;;0.52;0.35;;;23.40;45.90;;;;;;4992350;28;45251;-62
2023/04/12 13:41:44;;;;;;;1.55;0.40;;;23.40;45.90;;;;;;4953890;28;45321;-62
2023/04/12 13:44:10;;;;;;;0.85;0.43;;;23.50;45.90;;;;;;4979436;28;45545;-62
2023/04/12 13:46:35;;;;;;;0.47;0.30;;;23.50;45.90;;;;;;4964300;28;45359;-59
2023/04/12 13:49:01;;;;;;;0.40;0.25;;;23.50;45.90;;;;;;4959244;28;44858;-60
2023/04/12 13:51:27;;;;;;;0.60;0.35;;;23.60;45.80;;;;;;4956773;28;45192;-62
2023/04/12 13:53:55;;;;;;;1.13;0.40;;;23.60;45.70;;;;;;4991661;28;45644;-61
2023/04/12 13:56:21;;;;;;;1.80;0.70;;;23.50;45.60;;;;;;4981749;28;45216;-61
2023/04/12 13:58:47;;;;;;;1.65;0.43;;;23.50;45.80;;;;;;4969067;28;45696;-61
2023/04/12 14:01:12;;;;;;;0.70;0.50;;;23.40;45.90;;;;;;4967347;28;45680;-62
2023/04/12 14:03:38;;;;;;;0.60;0.30;;;23.30;46.10;;;;;;4965471;28;46260;-60
2023/04/12 14:06:06;;;;;;;2.85;0.50;;;23.20;46.20;;;;;;4975792;28;45732;-62
2023/04/12 14:08:32;;;;;;;0.60;0.50;;;23.20;46.40;;;;;;4938144;28;45326;-62
2023/04/12 14:10:57;;;;;;;0.50;0.40;;;23.10;46.50;;;;;;4964820;28;45224;-62
2023/04/12 14:13:23;;;;;;;0.85;0.35;;;23.00;46.60;;;;;;4990164;28;45719;-62
2023/04/12 14:15:50;;;;;;;1.13;0.40;;;23.00;46.60;;;;;;4949150;28;45418;-62
2023/04/12 14:18:15;;;;;;;2.00;0.43;;;22.90;46.70;;;;;;4958259;28;45335;-62
2023/04/12 14:20:42;;;;;;;0.65;0.40;;;22.90;46.80;;;;;;4954736;28;44809;-62
2023/04/12 14:23:08;;;;;;;1.00;0.45;;;22.80;46.90;;;;;;4982273;28;45340;-63
2023/04/12 14:25:36;;;;;;;0.40;0.30;;;22.80;47.00;;;;;;4985156;28;45132;-63
2023/04/12 14:28:02;;;;;;;0.82;0.40;;;22.70;47.10;;;;;;4970333;28;45380;-62
2023/04/12 14:30:27;;;;;;;1.25;0.40;;;22.70;47.20;;;;;;4987778;28;45075;-63
2023/04/12 14:32:53;;;;;;;1.77;0.52;;;22.60;47.20;;;;;;4954860;28;46969;-62
2023/04/12 14:35:19;;;;;;;1.20;0.40;;;22.60;47.60;;;;;;4970548;28;45199;-63
2023/04/12 14:37:44;;;;;;;0.70;0.40;;;22.50;47.30;;;;;;4974242;28;45513;-61
2023/04/12 14:40:10;;;;;;;1.10;0.55;;;22.50;47.40;;;;;;4989481;28;45246;-62
2023/04/12 14:42:36;;;;;;;0.55;0.50;;;22.40;47.40;;;;;;4959533;28;45466;-63
2023/04/12 14:45:04;;;;;;;1.92;0.50;;;22.40;47.50;;;;;;4978314;28;45288;-62
2023/04/12 14:47:29;;;;;;;0.55;0.45;;;22.40;47.50;;;;;;4948923;28;45191;-62
2023/04/12 14:49:55;;;;;;;0.60;0.40;;;22.30;47.50;;;;;;4968962;28;45706;-62
2023/04/12 14:52:21;;;;;;;0.60;0.50;;;22.30;47.60;;;;;;4963631;28;45907;-62
2023/04/12 14:54:47;;;;;;;1.58;0.50;;;22.20;47.60;;;;;;4982012;28;45193;-61
2023/04/12 14:57:13;;;;;;;0.40;0.40;;;22.20;47.60;;;;;;4980988;28;45257;-62
2023/04/12 14:59:39;;;;;;;0.45;0.40;;;22.20;47.70;;;;;;4969581;28;45542;-62
2023/04/12 15:02:05;;;;;;;1.08;0.73;;;22.10;47.70;;;;;;4961448;28;45715;-62
2023/04/12 15:04:31;;;;;;;0.73;0.50;;;22.10;47.80;;;;;;4984441;28;45417;-62
2023/04/12 15:06:56;;;;;;;0.40;0.40;;;22.10;47.70;;;;;;4952262;28;44700;-62
2023/04/12 15:09:22;;;;;;;1.80;0.40;;;22.00;47.80;;;;;;4970284;28;45299;-62
2023/04/12 15:11:54;;;;;;;0.77;0.50;;;22.00;47.80;;;;;;4980772;28;45450;-62
2023/04/12 15:14:21;;;;;;;0.57;0.30;;;22.00;47.90;;;;;;4975346;28;45272;-63
2023/04/12 15:16:49;;;;;;;0.70;0.30;;;21.90;47.90;;;;;;4944201;28;44939;-62
2023/04/12 15:19:16;;;;;;;0.47;0.38;;;21.90;47.90;;;;;;4986600;28;45503;-62
2023/04/12 15:21:42;;;;;;;1.13;0.55;;;21.90;48.00;;;;;;4970324;28;45515;-62
2023/04/12 15:24:08;;;;;;;0.98;0.60;;;21.80;48.00;;;;;;4990652;28;45514;-62
2023/04/12 15:26:35;;;;;;;0.73;0.38;;;21.80;48.10;;;;;;4963503;28;45478;-62
2023/04/12 15:29:01;;;;;;;1.15;0.40;;;21.70;48.00;;;;;;4987385;28;45506;-63
2023/04/12 15:31:27;;;;;;;0.55;0.40;;;21.70;48.10;;;;;;4965989;28;45531;-63
2023/04/12 15:33:52;;;;;;;0.90;0.40;;;21.70;48.10;;;;;;4962781;28;45419;-62
2023/04/12 15:36:20;;;;;;;1.10;0.40;;;21.60;48.10;;;;;;4961650;28;45373;-62
2023/04/12 15:38:46;;;;;;;0.45;0.43;;;21.60;48.20;;;;;;4976654;28;45340;-63
2023/04/12 15:41:11;;;;;;;0.90;0.55;;;21.60;48.30;;;;;;4981130;28;45384;-62
2023/04/12 15:43:37;;;;;;;1.00;0.50;;;21.60;48.40;;;;;;4969369;28;45533;-62
2023/04/12 15:46:03;;;;;;;2.05;0.30;;;21.50;48.40;;;;;;4962169;28;44694;-62
2023/04/12 15:48:29;;;;;;;1.75;0.47;;;21.50;48.30;;;;;;4969296;28;45209;-62